ADDS TAF Board (Experimental) INFO Settings

IDs: Format: Expanded Condensed

KCLE - Cleveland/Hopkins In, OH, US

Issued at 2339 UTC 06 Mar 2015
Updated at: 0138 UTC 07 Mar 2015
Time0051Z 07/02Z 07/03Z 07/04Z 07/05Z 07/06Z 07/07Z 07/08Z 07/09Z 07/10Z 07/11Z 07/12Z 07/13Z 07/14Z
Type OBS PRVL PRVL PRVL PRVL PRVL PRVL PRVL PRVL PRVL PRVL PRVL PRVL PRVL
VIS 10 >6 >6 >6 >6 >6 >6 >6 >6 >6 >6 >6 >6 >6
CIG -- 100 100 100 100 100 100 100 100 100 100 60 60 60
Cover FEW BKN BKN BKN BKN BKN BKN BKN BKN BKN BKN OVC OVC OVC
FltCat VFR VFR VFR VFR VFR VFR VFR VFR VFR VFR VFR VFR VFR VFR
WX -- -- -- -- -- -- -- -- -- -- -- -- -- --
WDir 200 200 200 200 200 200 200 200 200 200 200 200 200 200
WSpd 11 12 12 12 12 12 12 12 12 12 12 12 12 12
WGst -- -- -- -- -- -- -- -- -- -- -- 20 20 20
R06/24
XWnd -5 -6 -6 -6 -6 -6 -6 -6 -6 -6 -6 -6 -6 -6
XGst -- -- -- -- -- -- -- -- -- -- -- -10 -10 -10
HWnd -10 -10 -10 -10 -10 -10 -10 -10 -10 -10 -10 -10 -10 -10
HGst -- -- -- -- -- -- -- -- -- -- -- -17 -17 -17
R10/28
XWnd -11 -11 -11 -11 -11 -11 -11 -11 -11 -11 -11 -11 -11 -11
XGst -- -- -- -- -- -- -- -- -- -- -- -19 -19 -19
HWnd -3 -4 -4 -4 -4 -4 -4 -4 -4 -4 -4 -4 -4 -4
HGst -- -- -- -- -- -- -- -- -- -- -- -6 -6 -6

NOTE: TEMPO conditions in [brackets]. Keep in mind TEMPO conditions might be better (lower impact) than prevailing conditions.

Raw TAF
KCLE 062339Z 0700/0806 20012KT P6SM BKN100 BKN250
  FM071200 20012G20KT P6SM OVC060
  FM071600 22015G25KT P6SM VCSH BKN020 OVC060
  FM072200 22010KT P6SM BKN025


Raw METAR
KCLE 070051Z 20011KT 10SM FEW090 M06/M14 A3032 RMK AO2 SLP283 T10611144 $
KCLE 062351Z 19010KT 10SM FEW200 M06/M14 A3033 RMK AO2 SLP286 4/007 T10561144 11044 21061 56019 $
KCLE 062251Z 20012KT 10SM FEW200 M05/M14 A3034 RMK AO2 SLP290 T10501144 $

METAR Board
Radar Display
Forecast Discussion

TAF Board Legend

Potential Impact
Threat None Slight Moderate High
Visibility (sm) ≥5.1 5.1>X≥3 3>X≥1 <1
Ceiling (100 ft) ≥30.1 30.1>X≥10 10>X≥5 <5
Wind Speed (kt) <10 10≤X<20 20≤X<30 ≥30
Wind Gust (kt) <15 15≤X<25 25≤X<35 ≥35
Weather No Wx Reported VCTS,-TS,-FZRA,SN TS,FZRA +TS,+FZRA,+SN